createdAt,value
2018-03-22T00:00:04.349Z,1
2018-03-22T00:05:02.982Z,1
2018-03-22T00:10:03.766Z,1
2018-03-22T00:15:03.277Z,1
2018-03-22T00:20:02.777Z,1
2018-03-22T00:25:03.261Z,1
2018-03-22T00:30:02.717Z,1
2018-03-22T00:35:03.228Z,1
2018-03-22T00:40:02.698Z,1
2018-03-22T00:45:03.190Z,1
2018-03-22T00:50:02.677Z,1
2018-03-22T00:55:03.161Z,1
2018-03-22T01:00:02.651Z,1
2018-03-22T01:05:03.042Z,1
2018-03-22T01:10:02.662Z,1
2018-03-22T01:15:03.425Z,1
2018-03-22T01:20:02.898Z,1
2018-03-22T01:25:02.436Z,1
2018-03-22T01:30:02.922Z,1
2018-03-22T01:35:03.353Z,1
2018-03-22T01:40:02.962Z,1
2018-03-22T01:45:02.427Z,1
2018-03-22T01:50:02.880Z,1
2018-03-22T01:55:03.294Z,1
2018-03-22T02:00:02.755Z,1
2018-03-22T02:05:03.240Z,1
2018-03-22T02:10:02.907Z,1
2018-03-22T02:15:02.524Z,1
2018-03-22T02:20:03.057Z,1
2018-03-22T02:25:02.585Z,1
2018-03-22T02:30:03.176Z,1
2018-03-22T02:35:02.670Z,1
2018-03-22T02:40:03.221Z,1
2018-03-22T02:45:02.745Z,1
2018-03-22T02:50:03.360Z,1
2018-03-22T02:55:02.852Z,1
2018-03-22T03:00:03.324Z,1
2018-03-22T03:05:02.745Z,1
2018-03-22T03:10:03.283Z,1
2018-03-22T03:15:02.817Z,1
2018-03-22T03:20:03.467Z,1
2018-03-22T03:25:02.954Z,1
2018-03-22T03:30:03.408Z,1
2018-03-22T03:35:02.864Z,1
2018-03-22T03:40:03.422Z,1
2018-03-22T03:45:02.932Z,1
2018-03-22T03:50:03.443Z,1
2018-03-22T03:55:02.919Z,1
2018-03-22T04:00:04.236Z,1
2018-03-22T04:05:02.740Z,1
2018-03-22T04:10:03.288Z,1
2018-03-22T04:15:02.752Z,1
2018-03-22T04:20:03.313Z,1
2018-03-22T04:25:02.861Z,1
2018-03-22T04:30:03.306Z,1
2018-03-22T04:35:02.780Z,1
2018-03-22T04:40:03.239Z,1
2018-03-22T04:45:02.676Z,1
2018-03-22T04:50:03.197Z,1
2018-03-22T04:55:02.696Z,1
2018-03-22T05:00:03.444Z,2
2018-03-22T05:05:02.826Z,2
2018-03-22T05:10:03.354Z,3
2018-03-22T05:15:02.802Z,3
2018-03-22T05:20:03.321Z,6
2018-03-22T05:25:02.860Z,12
2018-03-22T05:30:03.011Z,19
2018-03-22T05:35:02.606Z,33
2018-03-22T05:40:03.207Z,41
2018-03-22T05:45:02.889Z,54
2018-03-22T05:50:02.756Z,62
2018-03-22T05:55:03.260Z,118
2018-03-22T06:00:02.775Z,170
2018-03-22T06:05:03.305Z,213
2018-03-22T06:10:02.908Z,183
2018-03-22T06:15:02.511Z,265
2018-03-22T06:20:03.198Z,259
2018-03-22T06:25:02.768Z,319
2018-03-22T06:30:03.333Z,305
2018-03-22T06:35:02.854Z,369
2018-03-22T06:40:02.541Z,424
2018-03-22T06:45:03.224Z,473
2018-03-22T06:50:02.711Z,499
2018-03-22T06:55:03.294Z,529
2018-03-22T07:00:02.991Z,535
2018-03-22T07:05:02.594Z,553
2018-03-22T07:10:03.116Z,583
2018-03-22T07:15:02.671Z,801
2018-03-22T07:20:03.250Z,969
2018-03-22T07:25:02.763Z,1000
2018-03-22T07:30:03.287Z,1000
2018-03-22T07:35:02.847Z,1000
2018-03-22T07:40:03.464Z,1000
2018-03-22T07:45:03.107Z,778
2018-03-22T07:50:02.714Z,939
2018-03-22T07:55:03.293Z,727
2018-03-22T08:00:03.081Z,850
2018-03-22T08:05:02.634Z,909
2018-03-22T08:10:03.253Z,1000
2018-03-22T08:15:02.747Z,1000
2018-03-22T08:20:03.436Z,1000
2018-03-22T08:25:03.107Z,1000
2018-03-22T08:30:02.838Z,1000
2018-03-22T08:35:03.407Z,1000
2018-03-22T08:40:03.320Z,2000
2018-03-22T08:45:02.827Z,1000
2018-03-22T08:50:03.410Z,877
2018-03-22T08:55:02.926Z,1000
2018-03-22T09:00:02.553Z,2000
2018-03-22T09:05:03.160Z,2000
2018-03-22T09:10:02.754Z,2000
2018-03-22T09:15:03.214Z,1000
2018-03-22T09:20:02.812Z,1000
2018-03-22T09:25:03.361Z,2000
2018-03-22T09:30:02.866Z,2000
2018-03-22T09:35:03.359Z,1000
2018-03-22T09:40:02.944Z,2000
2018-03-22T09:45:02.473Z,2000
2018-03-22T09:50:03.057Z,3000
2018-03-22T09:55:02.669Z,2000
2018-03-22T10:00:03.290Z,2000
2018-03-22T10:05:02.762Z,2000
2018-03-22T10:10:03.362Z,2000
2018-03-22T10:15:02.856Z,3000
2018-03-22T10:20:03.410Z,2000
2018-03-22T10:25:02.988Z,2000
2018-03-22T10:30:02.540Z,3000
2018-03-22T10:35:03.150Z,3000
2018-03-22T10:40:02.758Z,3000
2018-03-22T10:45:03.326Z,4000
2018-03-22T10:50:02.819Z,3000
2018-03-22T10:55:03.393Z,6000
2018-03-22T11:00:02.932Z,9000
2018-03-22T11:05:02.498Z,26000
2018-03-22T11:10:03.104Z,14000
2018-03-22T11:15:02.632Z,5000
2018-03-22T11:20:03.123Z,15000
2018-03-22T11:25:02.695Z,47000
2018-03-22T11:30:03.314Z,52000
2018-03-22T11:35:02.975Z,22000
2018-03-22T11:40:02.562Z,8000
2018-03-22T11:45:03.076Z,6000
2018-03-22T11:50:02.598Z,5000
2018-03-22T11:55:03.101Z,3000
2018-03-22T12:00:02.658Z,2000
2018-03-22T12:05:03.137Z,2000
2018-03-22T12:10:02.694Z,1000
2018-03-22T12:15:03.230Z,1000
2018-03-22T12:20:02.716Z,2000
2018-03-22T12:25:03.312Z,4000
2018-03-22T12:30:02.858Z,7000
2018-03-22T12:35:03.376Z,8000
2018-03-22T12:40:02.956Z,12000
2018-03-22T12:45:02.448Z,17000
2018-03-22T12:50:03.098Z,6000
2018-03-22T12:55:02.688Z,3000
2018-03-22T13:00:03.308Z,5000
2018-03-22T13:05:03.316Z,10000
2018-03-22T13:10:02.841Z,10000
2018-03-22T13:15:03.442Z,5000
2018-03-22T13:20:03.005Z,5000
2018-03-22T13:25:02.515Z,6000
2018-03-22T13:30:02.999Z,8000
2018-03-22T13:35:02.507Z,7000
2018-03-22T13:40:03.159Z,5000
2018-03-22T13:45:02.714Z,4000
2018-03-22T13:50:03.304Z,3000
2018-03-22T13:55:02.756Z,4000
2018-03-22T14:00:03.369Z,4000
2018-03-22T14:05:03.046Z,5000
2018-03-22T14:10:02.676Z,3000
2018-03-22T14:15:03.267Z,2000
2018-03-22T14:20:02.887Z,3000
2018-03-22T14:25:03.407Z,3000
2018-03-22T14:30:02.932Z,3000
2018-03-22T14:35:02.485Z,3000
2018-03-22T14:40:03.080Z,3000
2018-03-22T14:45:02.740Z,2000
2018-03-22T14:50:02.483Z,2000
2018-03-22T14:55:03.045Z,2000
2018-03-22T15:00:02.742Z,2000
2018-03-22T15:05:03.258Z,2000
2018-03-22T15:10:02.900Z,2000
2018-03-22T15:15:02.499Z,2000
2018-03-22T15:20:03.062Z,1000
2018-03-22T15:25:02.591Z,3000
2018-03-22T15:30:03.199Z,2000
2018-03-22T15:35:02.782Z,3000
2018-03-22T15:40:03.336Z,2000
2018-03-22T15:45:02.911Z,1000
2018-03-22T15:50:03.408Z,2000
2018-03-22T15:55:02.918Z,2000
2018-03-22T16:00:02.491Z,1000
2018-03-22T16:05:03.084Z,1000
2018-03-22T16:10:02.624Z,1000
2018-03-22T16:15:03.156Z,1000
2018-03-22T16:20:02.752Z,2000
2018-03-22T16:25:03.258Z,2000
2018-03-22T16:30:02.808Z,2000
2018-03-22T16:35:03.384Z,2000
2018-03-22T16:40:02.989Z,1000
2018-03-22T16:45:02.588Z,1000
2018-03-22T16:50:03.164Z,1000
2018-03-22T17:00:02.770Z,1000
2018-03-22T17:05:02.767Z,840
2018-03-22T17:10:03.414Z,758
2018-03-22T19:15:02.940Z,1
2018-03-22T19:20:03.431Z,1
2018-03-22T19:25:02.973Z,1
2018-03-22T19:30:02.496Z,1
2018-03-22T19:35:03.191Z,1
2018-03-22T19:40:02.808Z,1
2018-03-22T19:45:03.369Z,1
2018-03-22T19:50:02.887Z,1
2018-03-22T19:55:03.447Z,1
2018-03-22T20:00:03.013Z,1
2018-03-22T20:05:02.531Z,1
2018-03-22T20:10:03.229Z,1
2018-03-22T20:15:02.754Z,1
2018-03-22T20:20:03.345Z,1
2018-03-22T20:25:02.923Z,1
2018-03-22T20:30:02.854Z,1
2018-03-22T20:35:03.440Z,1
2018-03-22T20:40:03.001Z,1
2018-03-22T20:45:02.537Z,1
2018-03-22T20:50:03.128Z,1
2018-03-22T20:55:02.712Z,1
2018-03-22T21:00:03.193Z,1
2018-03-22T21:05:02.724Z,1
2018-03-22T21:10:03.345Z,1
2018-03-22T21:15:02.881Z,1
2018-03-22T21:20:02.504Z,1
2018-03-22T21:25:03.016Z,1
2018-03-22T21:30:02.638Z,1
2018-03-22T21:35:03.217Z,1
2018-03-22T21:40:02.829Z,1
2018-03-22T21:45:03.379Z,1
2018-03-22T21:50:02.955Z,1
2018-03-22T21:55:02.567Z,1
2018-03-22T22:00:03.091Z,1
2018-03-22T22:05:02.639Z,1
2018-03-22T22:10:03.271Z,1
2018-03-22T22:15:02.813Z,1
2018-03-22T22:20:03.375Z,1
2018-03-22T22:25:02.970Z,1
2018-03-22T22:30:02.960Z,1
2018-03-22T22:35:02.523Z,1
2018-03-22T22:40:03.127Z,1
2018-03-22T22:45:02.672Z,1
2018-03-22T22:50:03.217Z,1
2018-03-22T22:55:02.747Z,1
2018-03-22T23:00:03.366Z,1
2018-03-22T23:05:02.894Z,1
2018-03-22T23:10:02.536Z,1
2018-03-22T23:15:03.097Z,1
2018-03-22T23:20:02.667Z,1
2018-03-22T23:25:03.207Z,1
2018-03-22T23:30:02.716Z,1
2018-03-22T23:35:03.341Z,1
2018-03-22T23:40:02.893Z,1
2018-03-22T23:45:03.439Z,1
2018-03-22T23:50:02.920Z,1
2018-03-22T23:55:03.440Z,1
